Time;durP1;ratioP1;P1;durP2;ratioP2;P2;SDS_P1;SDS_P2;PMS_P1;PMS_P2;Temp;Humidity;BMP_temperature;BMP_pressure;BME280_temperature;BME280_humidity;BME280_pressure;Samples;Min_cycle;Max_cycle;Signal;HPM_P1;HPM_P2
2021/12/31 00:01:33;;;;;;;7.20;6.63;;;;;;;;;;5042684;28;20076;-58
2021/12/31 00:03:59;;;;;;;7.28;6.78;;;;;;;;;;5042347;28;20171;-58
2021/12/31 00:06:24;;;;;;;7.20;6.70;;;;;;;;;;5046194;28;20029;-58
2021/12/31 00:08:50;;;;;;;7.25;6.75;;;;;;;;;;5040398;28;21672;-58
2021/12/31 00:11:15;;;;;;;7.97;7.45;;;;;;;;;;5041376;28;20040;-58
2021/12/31 00:13:41;;;;;;;8.25;7.75;;;;;;;;;;5040343;28;20033;-58
2021/12/31 00:16:06;;;;;;;7.53;7.03;;;;;;;;;;5042971;28;20048;-59
2021/12/31 00:18:31;;;;;;;7.38;6.88;;;;;;;;;;5041442;28;20474;-59
2021/12/31 00:20:57;;;;;;;7.88;7.28;;;;;;;;;;5039873;28;20140;-59
2021/12/31 00:23:25;;;;;;;7.13;6.63;;;;;;;;;;5044763;28;20031;-58
2021/12/31 00:25:51;;;;;;;10.00;9.25;;;;;;;;;;5041885;28;20043;-58
2021/12/31 00:28:17;;;;;;;9.65;8.85;;;;;;;;;;5042577;28;20112;-58
2021/12/31 00:30:43;;;;;;;9.70;9.10;;;;;;;;;;5038936;28;20053;-58
2021/12/31 00:33:09;;;;;;;8.35;7.78;;;;;;;;;;5043125;28;20037;-58
2021/12/31 00:35:36;;;;;;;10.70;6.95;;;;;;;;;;5042492;28;20471;-58
2021/12/31 00:38:02;;;;;;;9.07;8.43;;;;;;;;;;5042102;28;20395;-58
2021/12/31 00:40:28;;;;;;;8.23;7.68;;;;;;;;;;5041085;28;20024;-58
2021/12/31 00:42:54;;;;;;;7.78;7.28;;;;;;;;;;5040650;28;20055;-58
2021/12/31 00:45:21;;;;;;;9.88;9.27;;;;;;;;;;5042905;28;20040;-58
2021/12/31 00:47:47;;;;;;;7.63;7.00;;;;;;;;;;5043328;28;20374;-58
2021/12/31 00:50:14;;;;;;;7.60;7.10;;;;;;;;;;5039771;28;20048;-58
2021/12/31 00:52:39;;;;;;;9.10;8.30;;;;;;;;;;5039650;28;20045;-59
2021/12/31 00:55:05;;;;;;;8.63;8.02;;;;;;;;;;5040650;28;20049;-58
2021/12/31 00:57:31;;;;;;;7.57;7.07;;;;;;;;;;5039033;28;20394;-58
2021/12/31 00:59:57;;;;;;;7.72;7.22;;;;;;;;;;5038386;28;20116;-59
2021/12/31 01:02:25;;;;;;;9.48;8.77;;;;;;;;;;5040872;28;20040;-59
2021/12/31 01:04:51;;;;;;;9.68;9.07;;;;;;;;;;5041657;28;20032;-59
2021/12/31 01:07:16;;;;;;;11.30;10.60;;;;;;;;;;5042410;28;20025;-59
2021/12/31 01:09:42;;;;;;;9.75;9.07;;;;;;;;;;5039124;28;20060;-59
2021/12/31 01:12:10;;;;;;;9.88;9.27;;;;;;;;;;5042919;28;20021;-59
2021/12/31 01:17:36;;;;;;;18.83;17.80;;;;;;;;;;5041523;28;20034;-58
2021/12/31 01:20:04;;;;;;;7.47;6.97;;;;;;;;;;5038718;28;20032;-58
2021/12/31 01:22:31;;;;;;;13.75;12.88;;;;;;;;;;5037683;28;20130;-59
2021/12/31 01:24:57;;;;;;;11.55;10.55;;;;;;;;;;5040030;28;20033;-57
2021/12/31 01:27:23;;;;;;;12.07;11.20;;;;;;;;;;5037606;28;20438;-58
2021/12/31 01:29:48;;;;;;;13.88;13.07;;;;;;;;;;5040486;28;20040;-57
2021/12/31 01:32:14;;;;;;;11.48;10.77;;;;;;;;;;5041160;28;20446;-58
2021/12/31 01:34:40;;;;;;;11.43;10.73;;;;;;;;;;5039511;28;20056;-58
2021/12/31 01:37:08;;;;;;;14.35;13.48;;;;;;;;;;5040921;28;20033;-57
2021/12/31 01:39:35;;;;;;;14.27;13.45;;;;;;;;;;5040533;28;20037;-57
2021/12/31 01:42:02;;;;;;;17.05;15.88;;;;;;;;;;5036362;28;20037;-57
2021/12/31 01:44:39;;;;;;;18.30;17.27;;;;;;;;;;5037102;28;20124;-58
2021/12/31 01:47:10;;;;;;;19.95;18.73;;;;;;;;;;5039635;28;20168;-58
2021/12/31 01:49:39;;;;;;;19.30;17.98;;;;;;;;;;5037249;28;20037;-58
2021/12/31 01:52:06;;;;;;;18.95;17.80;;;;;;;;;;5040011;28;20052;-58
2021/12/31 01:54:33;;;;;;;21.63;20.38;;;;;;;;;;5037190;28;20025;-58
2021/12/31 01:57:05;;;;;;;20.15;18.42;;;;;;;;;;5042341;28;20608;-60
2021/12/31 01:59:33;;;;;;;25.13;23.60;;;;;;;;;;5038610;28;20044;-58
2021/12/31 02:01:59;;;;;;;20.50;19.40;;;;;;;;;;5040648;28;20061;-59
2021/12/31 02:04:27;;;;;;;23.80;22.50;;;;;;;;;;5039159;28;20051;-59
2021/12/31 02:06:52;;;;;;;19.63;18.35;;;;;;;;;;5039861;28;20047;-59
2021/12/31 02:09:18;;;;;;;18.85;17.63;;;;;;;;;;5040434;28;20447;-59
2021/12/31 02:11:43;;;;;;;22.80;21.58;;;;;;;;;;5038954;28;20037;-59
2021/12/31 02:14:09;;;;;;;17.13;16.17;;;;;;;;;;5040430;28;20146;-59
2021/12/31 02:16:35;;;;;;;22.60;21.38;;;;;;;;;;5039376;28;20093;-59
2021/12/31 02:19:11;;;;;;;6.55;6.05;;;;;;;;;;5039387;28;20609;-59
2021/12/31 02:21:37;;;;;;;4.47;4.07;;;;;;;;;;5038703;28;20044;-59
2021/12/31 02:24:06;;;;;;;5.07;4.22;;;;;;;;;;5037172;28;20029;-59
2021/12/31 02:26:31;;;;;;;4.50;4.15;;;;;;;;;;5040132;28;20033;-57
2021/12/31 02:28:57;;;;;;;4.00;3.70;;;;;;;;;;5039541;28;20467;-57
2021/12/31 02:31:22;;;;;;;4.95;4.55;;;;;;;;;;5040797;28;20108;-57
2021/12/31 02:33:49;;;;;;;4.70;4.30;;;;;;;;;;5037532;28;20052;-57
2021/12/31 02:36:15;;;;;;;6.15;5.35;;;;;;;;;;5039963;28;20495;-57
2021/12/31 02:38:41;;;;;;;4.25;3.88;;;;;;;;;;5038438;28;20139;-58
2021/12/31 02:41:06;;;;;;;5.13;4.72;;;;;;;;;;5045151;28;20112;-58
2021/12/31 02:43:32;;;;;;;5.13;4.65;;;;;;;;;;5039487;28;20060;-58
2021/12/31 02:45:57;;;;;;;4.28;3.92;;;;;;;;;;5038060;28;20465;-58
2021/12/31 02:48:26;;;;;;;5.07;4.68;;;;;;;;;;5039161;28;20025;-58
2021/12/31 02:50:55;;;;;;;5.03;4.63;;;;;;;;;;5038189;28;20025;-58
2021/12/31 02:53:41;;;;;;;5.10;4.65;;;;;;;;;;5039143;28;20063;-58
2021/12/31 02:56:12;;;;;;;5.85;5.38;;;;;;;;;;5037476;28;20037;-58
2021/12/31 02:58:39;;;;;;;5.18;4.78;;;;;;;;;;5038074;28;20026;-59
2021/12/31 03:01:06;;;;;;;4.72;4.32;;;;;;;;;;5036341;28;20033;-58
2021/12/31 03:03:34;;;;;;;4.90;4.50;;;;;;;;;;5038319;28;20091;-58
2021/12/31 03:06:00;;;;;;;4.63;4.22;;;;;;;;;;5037029;28;20048;-59
2021/12/31 03:08:29;;;;;;;4.75;4.35;;;;;;;;;;5046816;28;20071;-58
2021/12/31 03:10:56;;;;;;;4.57;4.18;;;;;;;;;;5039304;28;20033;-58
2021/12/31 03:13:22;;;;;;;5.32;4.82;;;;;;;;;;5038081;28;20459;-59
2021/12/31 03:15:48;;;;;;;4.65;4.25;;;;;;;;;;5038936;28;20068;-59
2021/12/31 03:18:15;;;;;;;5.50;5.10;;;;;;;;;;5037502;28;20512;-58
2021/12/31 03:20:43;;;;;;;5.43;4.93;;;;;;;;;;5036554;28;20137;-58
2021/12/31 03:23:09;;;;;;;4.70;4.30;;;;;;;;;;5037786;28;20099;-58
2021/12/31 03:25:35;;;;;;;6.40;4.60;;;;;;;;;;5039130;28;20032;-58
2021/12/31 03:28:01;;;;;;;7.13;4.63;;;;;;;;;;5038774;28;20033;-58
2021/12/31 03:30:26;;;;;;;5.35;4.85;;;;;;;;;;5041773;28;20043;-58
2021/12/31 03:32:53;;;;;;;5.47;4.47;;;;;;;;;;5038616;28;20508;-58
2021/12/31 03:35:18;;;;;;;6.55;6.03;;;;;;;;;;5037640;28;20352;-60
2021/12/31 03:37:44;;;;;;;5.63;5.13;;;;;;;;;;5040269;28;20037;-57
2021/12/31 03:40:10;;;;;;;9.55;5.53;;;;;;;;;;5038640;28;20087;-57
2021/12/31 03:42:36;;;;;;;6.22;5.78;;;;;;;;;;5037999;28;20493;-57
2021/12/31 03:45:02;;;;;;;5.88;5.38;;;;;;;;;;5038268;28;20447;-58
2021/12/31 03:47:28;;;;;;;7.22;6.53;;;;;;;;;;5037762;28;20056;-58
2021/12/31 03:49:53;;;;;;;5.30;4.90;;;;;;;;;;5037199;28;20070;-58
2021/12/31 03:52:19;;;;;;;6.38;5.88;;;;;;;;;;5040044;28;20068;-58
2021/12/31 03:54:44;;;;;;;8.80;5.93;;;;;;;;;;5037671;28;20400;-58
2021/12/31 03:57:09;;;;;;;5.95;5.45;;;;;;;;;;5034467;28;20037;-58
2021/12/31 03:59:35;;;;;;;5.60;5.20;;;;;;;;;;5037509;28;20073;-58
2021/12/31 04:02:00;;;;;;;6.32;5.82;;;;;;;;;;5037692;28;20580;-58
2021/12/31 04:04:26;;;;;;;5.95;5.32;;;;;;;;;;5042157;28;20039;-58
2021/12/31 04:06:52;;;;;;;5.47;5.07;;;;;;;;;;5041051;28;20071;-58
2021/12/31 04:09:17;;;;;;;6.50;6.00;;;;;;;;;;5043135;28;20032;-57
2021/12/31 04:11:42;;;;;;;5.90;5.50;;;;;;;;;;5046340;28;20091;-57
2021/12/31 04:14:08;;;;;;;6.47;5.88;;;;;;;;;;5042182;28;20037;-57
2021/12/31 04:16:33;;;;;;;6.30;5.78;;;;;;;;;;5041577;28;20063;-57
2021/12/31 04:18:59;;;;;;;6.50;6.00;;;;;;;;;;5040193;28;20037;-63
2021/12/31 04:21:25;;;;;;;6.47;5.97;;;;;;;;;;5043384;28;20039;-61
2021/12/31 04:24:06;;;;;;;6.43;5.90;;;;;;;;;;5042112;28;20455;-61
2021/12/31 04:26:31;;;;;;;6.13;5.70;;;;;;;;;;5042221;28;20126;-61
2021/12/31 04:28:57;;;;;;;6.50;6.00;;;;;;;;;;5041383;28;20439;-61
2021/12/31 04:31:23;;;;;;;5.07;4.68;;;;;;;;;;5044123;28;20043;-63
2021/12/31 04:33:49;;;;;;;5.63;5.13;;;;;;;;;;5038185;28;20341;-62
2021/12/31 04:36:14;;;;;;;7.13;6.63;;;;;;;;;;5042501;28;20029;-62
2021/12/31 04:38:40;;;;;;;6.15;5.65;;;;;;;;;;5040837;28;20037;-62
2021/12/31 04:41:06;;;;;;;6.72;5.93;;;;;;;;;;5040254;28;20099;-62
2021/12/31 04:43:31;;;;;;;6.05;5.55;;;;;;;;;;5039606;28;20066;-62
2021/12/31 04:45:56;;;;;;;6.53;6.03;;;;;;;;;;5041476;28;20041;-62
2021/12/31 04:48:22;;;;;;;6.47;5.97;;;;;;;;;;5040967;28;20469;-62
2021/12/31 04:50:48;;;;;;;10.98;6.60;;;;;;;;;;5039546;28;20086;-62
2021/12/31 04:53:14;;;;;;;6.43;5.93;;;;;;;;;;5038943;28;20048;-62
2021/12/31 04:55:39;;;;;;;6.72;5.68;;;;;;;;;;5041118;28;20037;-61
2021/12/31 04:58:04;;;;;;;6.47;5.97;;;;;;;;;;5041009;28;20021;-60
2021/12/31 05:00:30;;;;;;;6.05;5.55;;;;;;;;;;5039084;28;20041;-61
2021/12/31 05:02:55;;;;;;;5.80;5.32;;;;;;;;;;5041724;28;20108;-61
2021/12/31 05:05:20;;;;;;;6.05;5.65;;;;;;;;;;5040753;28;20470;-61
2021/12/31 05:07:46;;;;;;;7.25;6.38;;;;;;;;;;5040673;28;20076;-61
2021/12/31 05:10:12;;;;;;;5.80;5.30;;;;;;;;;;5041118;28;20477;-61
2021/12/31 05:12:38;;;;;;;5.80;5.40;;;;;;;;;;5041735;28;20041;-61
2021/12/31 05:15:09;;;;;;;6.43;5.95;;;;;;;;;;5040830;28;20061;-58
2021/12/31 05:17:35;;;;;;;7.18;6.68;;;;;;;;;;5039080;28;20029;-58
2021/12/31 05:20:02;;;;;;;13.23;7.15;;;;;;;;;;5040316;28;20025;-59
2021/12/31 05:22:28;;;;;;;7.05;6.53;;;;;;;;;;5039549;28;20033;-59
2021/12/31 05:24:53;;;;;;;7.70;7.15;;;;;;;;;;5043153;28;20423;-59
2021/12/31 05:27:18;;;;;;;5.80;5.40;;;;;;;;;;5038555;28;20025;-59
2021/12/31 05:29:44;;;;;;;6.00;5.38;;;;;;;;;;5040490;28;20033;-60
2021/12/31 05:32:10;;;;;;;7.10;6.60;;;;;;;;;;5040344;28;20056;-59
2021/12/31 05:34:35;;;;;;;7.55;7.05;;;;;;;;;;5041088;28;20029;-61
2021/12/31 05:37:01;;;;;;;7.20;6.60;;;;;;;;;;5040750;28;20067;-61
2021/12/31 05:39:26;;;;;;;6.90;6.40;;;;;;;;;;5040098;28;20064;-60
2021/12/31 05:41:53;;;;;;;6.93;6.32;;;;;;;;;;5039974;28;20029;-60
2021/12/31 05:44:18;;;;;;;6.88;6.38;;;;;;;;;;5037592;28;20029;-60
2021/12/31 05:46:48;;;;;;;6.70;6.20;;;;;;;;;;5041344;28;20469;-60
2021/12/31 05:49:13;;;;;;;6.57;6.07;;;;;;;;;;5039466;28;20033;-60
2021/12/31 05:51:39;;;;;;;6.85;6.35;;;;;;;;;;5039854;28;20040;-59
2021/12/31 05:54:04;;;;;;;6.72;6.22;;;;;;;;;;5038025;28;20454;-60
2021/12/31 05:56:30;;;;;;;6.28;5.55;;;;;;;;;;5039772;28;20033;-60
2021/12/31 05:58:55;;;;;;;10.40;5.32;;;;;;;;;;5039648;28;20187;-58
2021/12/31 06:01:21;;;;;;;6.25;5.50;;;;;;;;;;5039814;28;20092;-58
2021/12/31 06:03:46;;;;;;;8.15;7.32;;;;;;;;;;5038770;28;20068;-57
2021/12/31 06:06:12;;;;;;;6.40;5.90;;;;;;;;;;5040469;28;20033;-59
2021/12/31 06:08:38;;;;;;;5.25;4.85;;;;;;;;;;5040270;28;20499;-59
2021/12/31 06:11:03;;;;;;;7.45;6.85;;;;;;;;;;5038787;28;20037;-59
2021/12/31 06:13:30;;;;;;;5.80;5.38;;;;;;;;;;5038521;28;20025;-59
2021/12/31 06:15:58;;;;;;;6.88;6.38;;;;;;;;;;5042422;28;20331;-59
2021/12/31 06:18:26;;;;;;;6.10;5.55;;;;;;;;;;5039181;28;20099;-59
2021/12/31 06:20:52;;;;;;;9.73;6.57;;;;;;;;;;5040564;28;20623;-59
2021/12/31 06:23:17;;;;;;;6.50;6.00;;;;;;;;;;5040395;28;20136;-59
2021/12/31 06:25:43;;;;;;;5.88;5.38;;;;;;;;;;5039012;28;20207;-59
2021/12/31 06:28:09;;;;;;;7.03;6.53;;;;;;;;;;5038638;28;20025;-59
2021/12/31 06:30:35;;;;;;;7.40;6.90;;;;;;;;;;5037593;28;20037;-57
2021/12/31 06:33:01;;;;;;;6.32;5.82;;;;;;;;;;5038665;28;20125;-58
2021/12/31 06:35:26;;;;;;;7.28;6.78;;;;;;;;;;5038480;28;20037;-57
2021/12/31 06:37:53;;;;;;;5.88;5.38;;;;;;;;;;5038245;28;20037;-57
2021/12/31 06:40:18;;;;;;;8.10;5.60;;;;;;;;;;5037840;28;20036;-57
2021/12/31 06:42:44;;;;;;;5.13;4.72;;;;;;;;;;5036853;28;20036;-58
2021/12/31 06:45:10;;;;;;;7.32;6.82;;;;;;;;;;5035623;28;20025;-57
2021/12/31 06:47:35;;;;;;;5.95;5.55;;;;;;;;;;5038770;28;20037;-58
2021/12/31 06:50:01;;;;;;;6.68;6.18;;;;;;;;;;5039004;28;20043;-58
2021/12/31 06:52:26;;;;;;;7.45;6.95;;;;;;;;;;5040921;28;20083;-58
2021/12/31 06:54:52;;;;;;;8.00;7.47;;;;;;;;;;5038080;28;20021;-58
2021/12/31 06:57:17;;;;;;;8.25;7.65;;;;;;;;;;5037050;28;20025;-58
2021/12/31 06:59:43;;;;;;;8.77;8.18;;;;;;;;;;5037911;28;20074;-58
2021/12/31 07:02:08;;;;;;;9.20;8.60;;;;;;;;;;5039395;28;20029;-58
2021/12/31 07:04:34;;;;;;;8.93;8.32;;;;;;;;;;5020611;28;20033;-58
2021/12/31 07:06:59;;;;;;;8.07;7.57;;;;;;;;;;5037853;28;20429;-58
2021/12/31 07:09:24;;;;;;;10.65;10.00;;;;;;;;;;5038081;28;20075;-58
2021/12/31 07:11:50;;;;;;;9.75;9.05;;;;;;;;;;5038560;28;20669;-58
2021/12/31 07:14:15;;;;;;;11.02;10.30;;;;;;;;;;5037271;28;20044;-58
2021/12/31 07:16:41;;;;;;;9.60;8.90;;;;;;;;;;5036798;28;20155;-58
2021/12/31 07:19:06;;;;;;;10.55;9.85;;;;;;;;;;5034643;28;20035;-58
2021/12/31 07:21:31;;;;;;;12.05;11.25;;;;;;;;;;5039308;28;20049;-57
2021/12/31 07:23:57;;;;;;;11.90;11.15;;;;;;;;;;5039506;28;20029;-58
2021/12/31 07:26:22;;;;;;;9.82;9.23;;;;;;;;;;5038665;28;20021;-58
2021/12/31 07:28:47;;;;;;;8.13;7.53;;;;;;;;;;5037616;28;20511;-58
2021/12/31 07:31:14;;;;;;;9.68;9.02;;;;;;;;;;5038823;28;20036;-58
2021/12/31 07:33:41;;;;;;;12.07;11.38;;;;;;;;;;5037536;28;20106;-57
2021/12/31 07:36:07;;;;;;;9.00;8.40;;;;;;;;;;5039443;28;20025;-58
2021/12/31 07:38:36;;;;;;;9.93;9.32;;;;;;;;;;5040200;28;20086;-58
2021/12/31 07:41:02;;;;;;;10.80;10.00;;;;;;;;;;5040270;28;20551;-58
2021/12/31 07:43:28;;;;;;;11.57;10.88;;;;;;;;;;5041591;28;20036;-58
2021/12/31 07:45:54;;;;;;;11.52;10.82;;;;;;;;;;5042137;28;20328;-58
2021/12/31 07:48:21;;;;;;;16.67;15.68;;;;;;;;;;5039217;28;20021;-58
2021/12/31 07:50:47;;;;;;;13.02;12.23;;;;;;;;;;5041892;28;20048;-58
2021/12/31 07:53:13;;;;;;;10.85;10.18;;;;;;;;;;5042835;28;20108;-57
2021/12/31 07:55:38;;;;;;;14.18;13.25;;;;;;;;;;5042256;28;20443;-58
2021/12/31 07:58:05;;;;;;;14.90;14.05;;;;;;;;;;5041083;28;20026;-58
2021/12/31 08:00:32;;;;;;;15.18;14.30;;;;;;;;;;5041787;28;20094;-58
2021/12/31 08:02:58;;;;;;;12.90;12.15;;;;;;;;;;5039720;28;20087;-58
2021/12/31 08:05:26;;;;;;;13.88;13.07;;;;;;;;;;5040222;28;20108;-58
2021/12/31 08:07:52;;;;;;;12.02;11.23;;;;;;;;;;5035799;28;20036;-58
2021/12/31 08:10:18;;;;;;;11.82;11.10;;;;;;;;;;5039652;28;20094;-58
2021/12/31 08:12:44;;;;;;;12.77;11.88;;;;;;;;;;5042330;28;20335;-58
2021/12/31 08:15:09;;;;;;;14.52;13.60;;;;;;;;;;5042511;28;20518;-58
2021/12/31 08:17:35;;;;;;;14.82;13.88;;;;;;;;;;5041850;28;20053;-58
2021/12/31 08:20:00;;;;;;;15.35;14.40;;;;;;;;;;5040380;28;20041;-58
2021/12/31 08:22:26;;;;;;;16.42;15.50;;;;;;;;;;5041975;28;20026;-58
2021/12/31 08:24:52;;;;;;;14.52;13.65;;;;;;;;;;5040505;28;20033;-58
2021/12/31 08:27:18;;;;;;;14.85;13.98;;;;;;;;;;5042713;28;20569;-58
2021/12/31 08:29:43;;;;;;;14.23;13.30;;;;;;;;;;5041150;28;20520;-58
2021/12/31 08:32:09;;;;;;;13.63;12.82;;;;;;;;;;5039517;28;20025;-58
2021/12/31 08:34:34;;;;;;;16.75;15.82;;;;;;;;;;5039573;28;20426;-58
2021/12/31 08:37:00;;;;;;;15.27;14.38;;;;;;;;;;5044405;28;20036;-58
2021/12/31 08:39:25;;;;;;;17.48;16.42;;;;;;;;;;5041290;28;20029;-58
2021/12/31 08:41:51;;;;;;;15.68;14.73;;;;;;;;;;5042595;28;20413;-58
2021/12/31 08:44:17;;;;;;;13.50;12.68;;;;;;;;;;5039544;28;20455;-58
2021/12/31 08:46:43;;;;;;;14.80;13.95;;;;;;;;;;5041067;28;20033;-57
2021/12/31 08:49:08;;;;;;;14.75;13.85;;;;;;;;;;5036354;28;20096;-58
2021/12/31 08:51:34;;;;;;;12.57;11.80;;;;;;;;;;5039090;28;20480;-58
2021/12/31 08:53:59;;;;;;;11.60;10.90;;;;;;;;;;5038908;28;20112;-58
2021/12/31 08:56:25;;;;;;;10.77;10.07;;;;;;;;;;5045228;28;20033;-58
2021/12/31 08:58:51;;;;;;;11.82;11.13;;;;;;;;;;5042309;28;20439;-58
2021/12/31 09:01:16;;;;;;;11.25;10.52;;;;;;;;;;5042415;28;20025;-58
2021/12/31 09:03:42;;;;;;;9.98;9.38;;;;;;;;;;5038150;28;20033;-58
2021/12/31 09:06:07;;;;;;;12.50;11.70;;;;;;;;;;5037283;28;20021;-58
2021/12/31 09:08:34;;;;;;;13.23;12.43;;;;;;;;;;5039674;28;20087;-58
2021/12/31 09:11:03;;;;;;;10.90;10.20;;;;;;;;;;5041421;28;20459;-58
2021/12/31 09:13:31;;;;;;;13.77;12.98;;;;;;;;;;5041272;28;20052;-58
2021/12/31 09:15:56;;;;;;;15.70;14.80;;;;;;;;;;5040703;28;20087;-58
2021/12/31 09:18:22;;;;;;;13.90;12.90;;;;;;;;;;5040841;28;20033;-58
2021/12/31 09:20:48;;;;;;;16.92;15.93;;;;;;;;;;5039005;28;20037;-58
2021/12/31 09:23:13;;;;;;;16.55;15.60;;;;;;;;;;5042161;28;20047;-58
2021/12/31 09:25:39;;;;;;;17.92;16.80;;;;;;;;;;5041299;28;20136;-58
2021/12/31 09:28:04;;;;;;;17.05;16.08;;;;;;;;;;5040643;28;20414;-60
2021/12/31 09:30:30;;;;;;;16.90;15.93;;;;;;;;;;5040102;28;20479;-58
2021/12/31 09:32:55;;;;;;;15.82;14.93;;;;;;;;;;5039726;28;20420;-59
2021/12/31 09:35:21;;;;;;;12.63;11.82;;;;;;;;;;5038541;28;20643;-58
2021/12/31 09:37:46;;;;;;;11.57;10.85;;;;;;;;;;5039463;28;20128;-58
2021/12/31 09:40:15;;;;;;;19.30;18.23;;;;;;;;;;5039918;28;20498;-58
2021/12/31 09:43:01;;;;;;;12.02;11.25;;;;;;;;;;5037689;28;20033;-62
2021/12/31 09:45:27;;;;;;;19.02;17.90;;;;;;;;;;5042406;28;20489;-61
2021/12/31 09:47:58;;;;;;;16.95;15.95;;;;;;;;;;5039084;28;20029;-58
2021/12/31 09:50:24;;;;;;;16.33;15.35;;;;;;;;;;5038251;28;20057;-58
2021/12/31 09:52:50;;;;;;;18.40;17.40;;;;;;;;;;5039626;28;20497;-59
2021/12/31 09:55:34;;;;;;;20.33;19.13;;;;;;;;;;5038877;28;20536;-58
2021/12/31 09:57:59;;;;;;;20.85;19.67;;;;;;;;;;5039229;28;20037;-59
2021/12/31 10:00:26;;;;;;;23.52;22.20;;;;;;;;;;5041402;28;20040;-59
2021/12/31 10:03:18;;;;;;;16.80;15.85;;;;;;;;;;5039009;28;20032;-59
2021/12/31 10:05:44;;;;;;;20.73;19.52;;;;;;;;;;5037566;28;20033;-59
2021/12/31 10:08:26;;;;;;;15.93;15.02;;;;;;;;;;5036935;28;20049;-59
2021/12/31 10:11:07;;;;;;;;;;;;;;;;;;5040555;28;20056;-58
2021/12/31 10:13:33;;;;;;;25.40;23.90;;;;;;;;;;5039693;28;19927;-60
2021/12/31 10:15:59;;;;;;;25.83;24.42;;;;;;;;;;5036612;28;20108;-58
2021/12/31 10:18:30;;;;;;;26.60;25.17;;;;;;;;;;5039180;28;20116;-61
2021/12/31 10:20:55;;;;;;;21.25;20.05;;;;;;;;;;5022008;28;20447;-63
2021/12/31 10:23:21;;;;;;;18.55;17.52;;;;;;;;;;5038092;28;20035;-62
2021/12/31 10:25:47;;;;;;;20.52;19.42;;;;;;;;;;5037109;28;20102;-64
2021/12/31 10:28:15;;;;;;;15.90;15.00;;;;;;;;;;5035115;28;20025;-64
2021/12/31 10:30:42;;;;;;;19.55;18.40;;;;;;;;;;5036505;28;20032;-63
2021/12/31 10:33:08;;;;;;;22.80;21.42;;;;;;;;;;5038165;28;20412;-59
2021/12/31 10:35:42;;;;;;;19.83;18.67;;;;;;;;;;5036948;28;20094;-58
2021/12/31 10:38:11;;;;;;;25.23;23.90;;;;;;;;;;5037098;28;20021;-62
2021/12/31 10:40:45;;;;;;;17.08;16.10;;;;;;;;;;5039409;28;20049;-62
2021/12/31 10:43:18;;;;;;;20.38;19.27;;;;;;;;;;5037288;28;20069;-64
2021/12/31 10:45:54;;;;;;;21.65;20.45;;;;;;;;;;5037177;28;20029;-65
2021/12/31 10:48:19;;;;;;;25.02;23.70;;;;;;;;;;5039680;28;20328;-63
2021/12/31 10:50:52;;;;;;;25.35;24.00;;;;;;;;;;5039980;28;20119;-63
2021/12/31 10:53:32;;;;;;;21.27;20.08;;;;;;;;;;5034903;28;20037;-63
2021/12/31 10:56:07;;;;;;;23.20;21.70;;;;;;;;;;5038278;28;20070;-63
2021/12/31 10:58:33;;;;;;;22.30;21.08;;;;;;;;;;5036872;28;20088;-65
2021/12/31 11:00:59;;;;;;;20.20;19.00;;;;;;;;;;5041291;28;20118;-59
2021/12/31 11:03:25;;;;;;;20.33;19.23;;;;;;;;;;5037956;28;20032;-59
2021/12/31 11:05:53;;;;;;;18.23;17.13;;;;;;;;;;5033841;28;20033;-58
2021/12/31 11:08:19;;;;;;;18.52;17.38;;;;;;;;;;5037071;28;20028;-62
2021/12/31 11:10:45;;;;;;;18.38;17.38;;;;;;;;;;5039818;28;20588;-61
2021/12/31 11:13:14;;;;;;;18.90;17.75;;;;;;;;;;5038323;28;20033;-59
2021/12/31 11:15:44;;;;;;;20.15;18.92;;;;;;;;;;5036520;28;20037;-58
2021/12/31 11:18:11;;;;;;;17.50;16.50;;;;;;;;;;5037824;28;20033;-58
2021/12/31 11:20:38;;;;;;;14.77;13.88;;;;;;;;;;5036804;28;20470;-58
2021/12/31 11:23:04;;;;;;;16.95;15.93;;;;;;;;;;5041291;28;20045;-59
2021/12/31 11:25:30;;;;;;;19.13;18.00;;;;;;;;;;5038245;28;20038;-58
2021/12/31 11:27:57;;;;;;;18.40;16.70;;;;;;;;;;5038237;28;20367;-63
2021/12/31 11:30:37;;;;;;;14.98;14.07;;;;;;;;;;5037628;28;20108;-58
2021/12/31 11:33:06;;;;;;;15.68;14.68;;;;;;;;;;5040334;28;20047;-58
2021/12/31 11:35:39;;;;;;;16.02;15.00;;;;;;;;;;5035112;28;20391;-58
2021/12/31 11:38:07;;;;;;;14.55;13.65;;;;;;;;;;5040004;28;20085;-58
2021/12/31 11:40:38;;;;;;;17.70;16.70;;;;;;;;;;5035557;28;20029;-60
2021/12/31 11:43:26;;;;;;;16.20;15.20;;;;;;;;;;5037607;28;20340;-59
2021/12/31 11:46:14;;;;;;;16.17;15.18;;;;;;;;;;5043748;28;20064;-62
2021/12/31 11:48:47;;;;;;;19.55;18.45;;;;;;;;;;5042167;28;20039;-58
2021/12/31 11:51:26;;;;;;;25.13;23.70;;;;;;;;;;5040621;28;20421;-58
2021/12/31 11:53:57;;;;;;;22.63;21.35;;;;;;;;;;5043744;28;20025;-59
2021/12/31 11:56:47;;;;;;;20.33;19.23;;;;;;;;;;5040833;28;20093;-58
2021/12/31 11:59:13;;;;;;;17.45;16.45;;;;;;;;;;5037616;28;20471;-58
2021/12/31 12:01:55;;;;;;;15.63;14.73;;;;;;;;;;5038992;28;20044;-58
2021/12/31 12:04:29;;;;;;;20.98;19.75;;;;;;;;;;5038594;28;20124;-59
2021/12/31 12:07:00;;;;;;;16.40;15.50;;;;;;;;;;5046594;28;20032;-58
2021/12/31 12:09:37;;;;;;;17.77;16.73;;;;;;;;;;5040093;28;20082;-59
2021/12/31 12:12:08;;;;;;;14.85;13.95;;;;;;;;;;5037223;28;20032;-58
2021/12/31 12:14:36;;;;;;;14.57;13.77;;;;;;;;;;5035228;28;20029;-59
2021/12/31 12:17:02;;;;;;;17.50;16.50;;;;;;;;;;5034962;28;20091;-58
2021/12/31 12:19:46;;;;;;;17.33;16.33;;;;;;;;;;5037085;28;20036;-59
2021/12/31 12:22:25;;;;;;;17.25;16.25;;;;;;;;;;5037266;28;20442;-59
2021/12/31 12:24:52;;;;;;;25.00;23.63;;;;;;;;;;5040833;28;20037;-58
2021/12/31 12:27:20;;;;;;;20.48;19.38;;;;;;;;;;5041691;28;20029;-62
2021/12/31 12:29:45;;;;;;;19.50;18.40;;;;;;;;;;5043589;28;20044;-62
2021/12/31 12:32:12;;;;;;;19.65;18.55;;;;;;;;;;5040623;28;20037;-61
2021/12/31 12:34:37;;;;;;;25.30;23.60;;;;;;;;;;5038302;28;20047;-58
2021/12/31 12:37:03;;;;;;;23.98;22.67;;;;;;;;;;5039966;28;20113;-63
2021/12/31 12:39:29;;;;;;;29.23;27.73;;;;;;;;;;5038531;28;20063;-59
2021/12/31 12:41:55;;;;;;;29.30;27.67;;;;;;;;;;5040535;28;20039;-59
2021/12/31 12:44:20;;;;;;;22.77;21.55;;;;;;;;;;5040161;28;20037;-58
2021/12/31 12:46:58;;;;;;;25.05;23.75;;;;;;;;;;5041868;28;20688;-59
2021/12/31 12:49:24;;;;;;;37.80;35.80;;;;;;;;;;5040386;28;20120;-59
2021/12/31 12:51:50;;;;;;;23.98;22.65;;;;;;;;;;5037556;28;20072;-58
2021/12/31 12:54:24;;;;;;;25.77;24.30;;;;;;;;;;5041369;28;20058;-63
2021/12/31 12:56:51;;;;;;;33.05;31.35;;;;;;;;;;5040899;28;20025;-63
2021/12/31 12:59:20;;;;;;;31.98;30.27;;;;;;;;;;5039930;28;20125;-58
2021/12/31 13:01:46;;;;;;;27.08;25.58;;;;;;;;;;5041351;28;21036;-58
2021/12/31 13:04:14;;;;;;;19.88;18.77;;;;;;;;;;5037812;28;20076;-59
2021/12/31 13:06:56;;;;;;;17.05;16.05;;;;;;;;;;5039859;28;20033;-64
2021/12/31 13:09:23;;;;;;;17.42;16.42;;;;;;;;;;5040421;28;20048;-63
2021/12/31 13:11:54;;;;;;;18.73;17.73;;;;;;;;;;5040674;28;20061;-62
2021/12/31 13:14:22;;;;;;;17.65;16.23;;;;;;;;;;5040097;28;20442;-62
2021/12/31 13:16:52;;;;;;;17.75;16.75;;;;;;;;;;5039224;28;20041;-63
2021/12/31 13:19:28;;;;;;;16.10;15.20;;;;;;;;;;5041980;28;20029;-62
2021/12/31 13:22:02;;;;;;;16.17;15.25;;;;;;;;;;5041741;28;20033;-58
2021/12/31 13:24:28;;;;;;;20.17;19.08;;;;;;;;;;5041004;28;20486;-59
2021/12/31 13:26:55;;;;;;;18.73;17.65;;;;;;;;;;5040292;28;20033;-59
2021/12/31 13:29:37;;;;;;;15.27;14.38;;;;;;;;;;5040961;28;20359;-58
2021/12/31 13:32:11;;;;;;;15.93;14.93;;;;;;;;;;5039800;28;20044;-58
2021/12/31 13:34:41;;;;;;;17.50;16.50;;;;;;;;;;5040399;28;20114;-59
2021/12/31 13:37:06;;;;;;;16.23;15.32;;;;;;;;;;5040012;28;20045;-59
2021/12/31 13:39:39;;;;;;;24.15;22.75;;;;;;;;;;5038481;28;20045;-59
2021/12/31 13:42:10;;;;;;;17.77;16.42;;;;;;;;;;5039269;28;20026;-58
2021/12/31 13:44:40;;;;;;;19.08;17.88;;;;;;;;;;5039100;28;20045;-59
2021/12/31 13:47:17;;;;;;;20.13;18.95;;;;;;;;;;5039898;28;20111;-59
2021/12/31 13:49:55;;;;;;;21.77;20.58;;;;;;;;;;5035669;28;20040;-59
2021/12/31 13:52:30;;;;;;;29.23;27.58;;;;;;;;;;5044081;28;20033;-58
2021/12/31 13:54:57;;;;;;;18.63;17.52;;;;;;;;;;5040179;28;20112;-59
2021/12/31 13:57:28;;;;;;;19.08;17.98;;;;;;;;;;5038370;28;20497;-59
2021/12/31 14:00:09;;;;;;;24.00;22.67;;;;;;;;;;5046812;28;20030;-58
2021/12/31 14:02:40;;;;;;;18.90;17.52;;;;;;;;;;5040903;28;20034;-59
2021/12/31 14:05:08;;;;;;;18.63;17.58;;;;;;;;;;5039093;28;20491;-60
2021/12/31 14:07:37;;;;;;;18.15;17.05;;;;;;;;;;5038003;28;20033;-59
2021/12/31 14:10:07;;;;;;;20.58;19.42;;;;;;;;;;5041441;28;20025;-61
2021/12/31 14:12:49;;;;;;;22.05;20.65;;;;;;;;;;5037911;28;20060;-62
2021/12/31 14:15:15;;;;;;;18.40;17.30;;;;;;;;;;5039988;28;20029;-62
2021/12/31 14:17:41;;;;;;;20.42;19.23;;;;;;;;;;5040723;28;20478;-62
2021/12/31 14:20:06;;;;;;;21.60;20.38;;;;;;;;;;5040594;28;20034;-58
2021/12/31 14:22:33;;;;;;;22.15;20.75;;;;;;;;;;5039300;28;20482;-58
2021/12/31 14:24:59;;;;;;;20.27;19.08;;;;;;;;;;5038960;28;20167;-58
2021/12/31 14:27:24;;;;;;;20.05;18.85;;;;;;;;;;5040167;28;20103;-61
2021/12/31 14:29:49;;;;;;;19.67;18.58;;;;;;;;;;5040675;28;20163;-58
2021/12/31 14:32:15;;;;;;;15.55;14.65;;;;;;;;;;5037777;28;20041;-61
2021/12/31 14:34:40;;;;;;;33.67;31.90;;;;;;;;;;5039843;28;20383;-62